sensor_id;sensor_type;location;lat;lon;timestamp;P1;durP1;ratioP1;P2;durP2;ratioP2
43690;SDS011;29293;52.190;21.226;2022-08-30T00:04:11;7.60;;;5.10;;
43690;SDS011;29293;52.190;21.226;2022-08-30T00:19:17;8.60;;;5.70;;
43690;SDS011;29293;52.190;21.226;2022-08-30T00:34:23;11.50;;;6.50;;
43690;SDS011;29293;52.190;21.226;2022-08-30T00:49:29;11.60;;;6.00;;
43690;SDS011;29293;52.190;21.226;2022-08-30T01:04:36;8.90;;;6.30;;
43690;SDS011;29293;52.190;21.226;2022-08-30T01:19:46;8.20;;;6.50;;
43690;SDS011;29293;52.190;21.226;2022-08-30T01:34:56;10.50;;;6.80;;
43690;SDS011;29293;52.190;21.226;2022-08-30T01:50:03;13.70;;;8.30;;
43690;SDS011;29293;52.190;21.226;2022-08-30T02:05:10;15.20;;;8.10;;
43690;SDS011;29293;52.190;21.226;2022-08-30T02:20:17;12.00;;;7.60;;
43690;SDS011;29293;52.190;21.226;2022-08-30T02:35:23;10.20;;;7.00;;
43690;SDS011;29293;52.190;21.226;2022-08-30T02:50:29;13.30;;;7.70;;
43690;SDS011;29293;52.190;21.226;2022-08-30T03:05:35;11.90;;;9.40;;
43690;SDS011;29293;52.190;21.226;2022-08-30T03:20:42;11.60;;;8.00;;
43690;SDS011;29293;52.190;21.226;2022-08-30T03:35:49;10.60;;;8.20;;
43690;SDS011;29293;52.190;21.226;2022-08-30T03:50:55;10.60;;;8.30;;
43690;SDS011;29293;52.190;21.226;2022-08-30T04:06:02;14.00;;;8.10;;
43690;SDS011;29293;52.190;21.226;2022-08-30T04:21:08;11.90;;;7.70;;
43690;SDS011;29293;52.190;21.226;2022-08-30T04:36:14;10.60;;;8.40;;
43690;SDS011;29293;52.190;21.226;2022-08-30T04:51:20;11.30;;;8.40;;
43690;SDS011;29293;52.190;21.226;2022-08-30T05:06:28;10.30;;;7.50;;
43690;SDS011;29293;52.190;21.226;2022-08-30T05:21:35;9.30;;;7.60;;
43690;SDS011;29293;52.190;21.226;2022-08-30T05:36:42;21.40;;;16.80;;
43690;SDS011;29293;52.190;21.226;2022-08-30T05:51:48;17.30;;;11.90;;
43690;SDS011;29293;52.190;21.226;2022-08-30T06:06:54;17.80;;;11.70;;
43690;SDS011;29293;52.190;21.226;2022-08-30T06:22:00;12.70;;;10.90;;
43690;SDS011;29293;52.190;21.226;2022-08-30T06:37:06;13.50;;;10.70;;
43690;SDS011;29293;52.190;21.226;2022-08-30T06:52:12;11.10;;;8.70;;
43690;SDS011;29293;52.190;21.226;2022-08-30T07:07:17;8.90;;;6.60;;
43690;SDS011;29293;52.190;21.226;2022-08-30T07:22:24;8.60;;;4.70;;
43690;SDS011;29293;52.190;21.226;2022-08-30T08:54:20;5.90;;;2.10;;
43690;SDS011;29293;52.190;21.226;2022-08-30T09:09:34;5.80;;;2.20;;
43690;SDS011;29293;52.190;21.226;2022-08-30T10:18:53;3.60;;;1.60;;
43690;SDS011;29293;52.190;21.226;2022-08-30T11:52:10;3.90;;;1.10;;
43690;SDS011;29293;52.190;21.226;2022-08-30T12:38:47;2.30;;;0.80;;
43690;SDS011;29293;52.190;21.226;2022-08-30T12:53:58;3.60;;;1.20;;
43690;SDS011;29293;52.190;21.226;2022-08-30T13:09:09;4.20;;;1.10;;
43690;SDS011;29293;52.190;21.226;2022-08-30T13:24:24;2.40;;;1.00;;
43690;SDS011;29293;52.190;21.226;2022-08-30T13:39:30;3.00;;;0.70;;
43690;SDS011;29293;52.190;21.226;2022-08-30T13:54:36;2.00;;;0.70;;
43690;SDS011;29293;52.190;21.226;2022-08-30T14:09:42;3.50;;;0.80;;
43690;SDS011;29293;52.190;21.226;2022-08-30T14:24:48;2.20;;;1.10;;
43690;SDS011;29293;52.190;21.226;2022-08-30T14:39:55;6.00;;;2.00;;
43690;SDS011;29293;52.190;21.226;2022-08-30T14:55:03;3.00;;;1.30;;
43690;SDS011;29293;52.190;21.226;2022-08-30T15:10:11;2.20;;;1.30;;
43690;SDS011;29293;52.190;21.226;2022-08-30T15:25:18;3.30;;;0.70;;
43690;SDS011;29293;52.190;21.226;2022-08-30T15:40:25;1.40;;;0.80;;
43690;SDS011;29293;52.190;21.226;2022-08-30T15:55:31;3.60;;;0.80;;
43690;SDS011;29293;52.190;21.226;2022-08-30T16:10:38;2.40;;;0.80;;
43690;SDS011;29293;52.190;21.226;2022-08-30T17:06:49;2.30;;;1.00;;
43690;SDS011;29293;52.190;21.226;2022-08-30T17:22:27;4.10;;;1.10;;
43690;SDS011;29293;52.190;21.226;2022-08-30T17:37:35;3.70;;;1.40;;
43690;SDS011;29293;52.190;21.226;2022-08-30T17:52:42;3.20;;;1.40;;
43690;SDS011;29293;52.190;21.226;2022-08-30T18:07:48;3.20;;;1.40;;
43690;SDS011;29293;52.190;21.226;2022-08-30T18:22:54;2.70;;;1.00;;
43690;SDS011;29293;52.190;21.226;2022-08-30T18:38:01;3.10;;;1.00;;
43690;SDS011;29293;52.190;21.226;2022-08-30T18:53:09;3.50;;;1.10;;
43690;SDS011;29293;52.190;21.226;2022-08-30T19:08:15;2.60;;;1.00;;
43690;SDS011;29293;52.190;21.226;2022-08-30T19:23:29;4.00;;;1.20;;
43690;SDS011;29293;52.190;21.226;2022-08-30T19:38:38;2.80;;;1.10;;
43690;SDS011;29293;52.190;21.226;2022-08-30T20:13:58;4.70;;;1.20;;
43690;SDS011;29293;52.190;21.226;2022-08-30T20:44:11;3.10;;;1.30;;
43690;SDS011;29293;52.190;21.226;2022-08-30T20:59:17;4.60;;;1.20;;
43690;SDS011;29293;52.190;21.226;2022-08-30T21:14:23;3.70;;;1.60;;
43690;SDS011;29293;52.190;21.226;2022-08-30T21:29:30;4.40;;;1.60;;
43690;SDS011;29293;52.190;21.226;2022-08-30T21:44:36;3.90;;;1.60;;
43690;SDS011;29293;52.190;21.226;2022-08-30T21:59:42;4.30;;;1.60;;
43690;SDS011;29293;52.190;21.226;2022-08-30T22:14:48;3.90;;;1.50;;
43690;SDS011;29293;52.190;21.226;2022-08-30T22:29:54;5.10;;;1.50;;
43690;SDS011;29293;52.190;21.226;2022-08-30T22:45:02;3.50;;;1.40;;
43690;SDS011;29293;52.190;21.226;2022-08-30T23:00:11;3.40;;;1.40;;
43690;SDS011;29293;52.190;21.226;2022-08-30T23:15:20;4.60;;;1.90;;
43690;SDS011;29293;52.190;21.226;2022-08-30T23:30:28;3.70;;;1.40;;
43690;SDS011;29293;52.190;21.226;2022-08-30T23:45:51;2.80;;;1.30;;
